Etusivu
METAR-TAF:

METAR-TAF

Lentoasemat :

Monbetsu, Japani

Leveyspiiri: 44-15N, Pituuspiiri: 143-32E, korkeus merenpinnasta: 6 m

Tämänhetkinen sää

Tämä raportti tehtiin 14 tuntia ja 4 minuuttia sitten, kello 07.04 UTC
Tuuli 4 kn pohjoisesta
Lämpötila 19°C
Kosteus 100%
Ilmanpaine 1011 hPa
Näkyvyys: 3100 m
Hajanaisia pilviä 400 ft:n korkeudessa
Hajonneita pilviä 1000 ft:n korkeudessa
Hajonneita pilviä 2500 ft:n korkeudessa
heikkoja vesikuuroja, utua

METAR: RJEB 200704Z 35004KT 3100 -SHRA BR SCT004 BKN010 BKN025 19/19 Q1011 RMK 3ST004 5ST010 7CU025 A2987

Aika: 06:08 (21:08 UTC)


TAF: puuttuu

Säähavainnot ja -ennusteet yli 4000 lentoasemalta (METAR- ja TAF-raportit).

Käytössä olevat sääasemat on merkitty karttaan keltaisilla ja punaisilla pisteillä.

Aseta hiiri pisteen päälle nähdäksesi sääaseman nimen.

Klikkaa sitten nähdäksesi säähavainnot ja -ennusteet.

Kartan vaihtaminen: klikkaa mustalla rastilla varustettuja vihreitä pisteitä, niin voit zoomata sisään; viivalla varustettua vihreää pistettä, niin voit zoomata ulos tai vihreitä nuolia, niin pääset viereisille kartoille.


METAR-TAF: